sensor_id;sensor_type;location;lat;lon;timestamp;pressure;altitude;pressure_sealevel;temperature;humidity
16331;BME280;8275;48.206;16.340;2023-02-18T00:01:41;99474.66;;;18.11;41.48
16331;BME280;8275;48.206;16.340;2023-02-18T00:04:10;99496.19;;;18.14;41.66
16331;BME280;8275;48.206;16.340;2023-02-18T00:06:39;99471.78;;;18.16;41.42
16331;BME280;8275;48.206;16.340;2023-02-18T00:09:07;99492.00;;;18.17;41.52
16331;BME280;8275;48.206;16.340;2023-02-18T00:11:37;99492.53;;;18.19;41.39
16331;BME280;8275;48.206;16.340;2023-02-18T00:14:13;99491.41;;;18.20;41.29
16331;BME280;8275;48.206;16.340;2023-02-18T00:16:42;99495.53;;;18.22;41.45
16331;BME280;8275;48.206;16.340;2023-02-18T00:19:14;99483.84;;;18.26;41.33
16331;BME280;8275;48.206;16.340;2023-02-18T00:21:44;99464.44;;;18.26;41.25
16331;BME280;8275;48.206;16.340;2023-02-18T00:24:14;99473.56;;;18.26;41.24
16331;BME280;8275;48.206;16.340;2023-02-18T00:26:43;99486.31;;;18.27;41.26
16331;BME280;8275;48.206;16.340;2023-02-18T00:29:13;99491.56;;;18.29;41.23
16331;BME280;8275;48.206;16.340;2023-02-18T00:31:42;99497.94;;;18.29;41.25
16331;BME280;8275;48.206;16.340;2023-02-18T00:34:12;99487.66;;;18.30;41.29
16331;BME280;8275;48.206;16.340;2023-02-18T00:36:41;99496.19;;;18.33;41.37
16331;BME280;8275;48.206;16.340;2023-02-18T00:39:10;99495.91;;;18.35;41.29
16331;BME280;8275;48.206;16.340;2023-02-18T00:41:40;99486.44;;;18.36;41.26
16331;BME280;8275;48.206;16.340;2023-02-18T00:44:10;99493.34;;;18.38;41.20
16331;BME280;8275;48.206;16.340;2023-02-18T00:46:40;99498.59;;;18.40;41.12
16331;BME280;8275;48.206;16.340;2023-02-18T00:49:09;99506.63;;;18.41;41.16
16331;BME280;8275;48.206;16.340;2023-02-18T00:51:38;99504.69;;;18.42;41.27
16331;BME280;8275;48.206;16.340;2023-02-18T00:54:06;99506.00;;;18.44;41.26
16331;BME280;8275;48.206;16.340;2023-02-18T00:56:35;99504.59;;;18.47;41.18
16331;BME280;8275;48.206;16.340;2023-02-18T00:59:04;99514.28;;;18.49;41.15
16331;BME280;8275;48.206;16.340;2023-02-18T01:01:32;99508.13;;;18.52;41.14
16331;BME280;8275;48.206;16.340;2023-02-18T01:04:03;99520.25;;;18.56;41.21
16331;BME280;8275;48.206;16.340;2023-02-18T01:06:31;99520.50;;;18.60;41.07
16331;BME280;8275;48.206;16.340;2023-02-18T01:09:00;99515.47;;;18.62;41.19
16331;BME280;8275;48.206;16.340;2023-02-18T01:11:29;99525.66;;;18.66;41.05
16331;BME280;8275;48.206;16.340;2023-02-18T01:13:57;99513.97;;;18.69;41.05
16331;BME280;8275;48.206;16.340;2023-02-18T01:16:26;99506.94;;;18.72;41.02
16331;BME280;8275;48.206;16.340;2023-02-18T01:18:54;99518.59;;;18.74;40.88
16331;BME280;8275;48.206;16.340;2023-02-18T01:21:24;99509.97;;;18.75;40.86
16331;BME280;8275;48.206;16.340;2023-02-18T01:23:53;99510.78;;;18.76;41.00
16331;BME280;8275;48.206;16.340;2023-02-18T01:26:21;99522.41;;;18.78;40.81
16331;BME280;8275;48.206;16.340;2023-02-18T01:28:49;99515.50;;;18.75;40.64
16331;BME280;8275;48.206;16.340;2023-02-18T01:31:18;99504.41;;;18.75;40.84
16331;BME280;8275;48.206;16.340;2023-02-18T01:33:46;99498.53;;;18.77;40.97
16331;BME280;8275;48.206;16.340;2023-02-18T01:36:16;99493.00;;;18.77;40.85
16331;BME280;8275;48.206;16.340;2023-02-18T01:38:46;99484.06;;;18.80;40.77
16331;BME280;8275;48.206;16.340;2023-02-18T01:41:14;99483.22;;;18.79;40.80
16331;BME280;8275;48.206;16.340;2023-02-18T01:43:43;99480.97;;;18.81;40.81
16331;BME280;8275;48.206;16.340;2023-02-18T01:46:16;99483.75;;;18.81;40.83
16331;BME280;8275;48.206;16.340;2023-02-18T01:48:49;99472.38;;;18.83;40.82
16331;BME280;8275;48.206;16.340;2023-02-18T01:51:24;99479.84;;;18.82;40.75
16331;BME280;8275;48.206;16.340;2023-02-18T01:53:59;99474.31;;;18.82;40.89
16331;BME280;8275;48.206;16.340;2023-02-18T01:56:33;99487.88;;;18.84;40.89
16331;BME280;8275;48.206;16.340;2023-02-18T01:59:07;99475.66;;;18.85;40.87
16331;BME280;8275;48.206;16.340;2023-02-18T02:01:38;99479.78;;;18.87;40.85
16331;BME280;8275;48.206;16.340;2023-02-18T02:04:09;99481.91;;;18.90;40.83
16331;BME280;8275;48.206;16.340;2023-02-18T02:06:38;99476.06;;;18.92;40.65
16331;BME280;8275;48.206;16.340;2023-02-18T02:09:12;99477.72;;;18.93;40.83
16331;BME280;8275;48.206;16.340;2023-02-18T02:12:02;99487.97;;;18.92;40.79
16331;BME280;8275;48.206;16.340;2023-02-18T02:17:27;99479.06;;;18.96;40.72
16331;BME280;8275;48.206;16.340;2023-02-18T02:20:40;99480.47;;;18.93;40.68
16331;BME280;8275;48.206;16.340;2023-02-18T02:23:51;99476.38;;;18.90;40.73
16331;BME280;8275;48.206;16.340;2023-02-18T02:26:57;99466.19;;;18.86;40.60
16331;BME280;8275;48.206;16.340;2023-02-18T02:30:05;99472.44;;;18.78;40.62
16331;BME280;8275;48.206;16.340;2023-02-18T02:33:40;99474.56;;;18.67;40.83
16331;BME280;8275;48.206;16.340;2023-02-18T02:36:20;99486.56;;;18.63;40.93
16331;BME280;8275;48.206;16.340;2023-02-18T02:38:55;99485.84;;;18.57;40.91
16331;BME280;8275;48.206;16.340;2023-02-18T02:41:42;99481.81;;;18.50;40.90
16331;BME280;8275;48.206;16.340;2023-02-18T02:44:20;99489.09;;;18.46;41.04
16331;BME280;8275;48.206;16.340;2023-02-18T02:46:52;99483.28;;;18.42;41.19
16331;BME280;8275;48.206;16.340;2023-02-18T02:49:36;99485.63;;;18.35;41.32
16331;BME280;8275;48.206;16.340;2023-02-18T02:52:14;99489.81;;;18.33;41.40
16331;BME280;8275;48.206;16.340;2023-02-18T02:54:44;99493.22;;;18.30;41.37
16331;BME280;8275;48.206;16.340;2023-02-18T02:57:43;99499.44;;;18.21;41.32
16331;BME280;8275;48.206;16.340;2023-02-18T03:00:15;99493.09;;;18.21;41.42
16331;BME280;8275;48.206;16.340;2023-02-18T03:03:35;99495.69;;;18.12;41.61
16331;BME280;8275;48.206;16.340;2023-02-18T03:06:26;99491.56;;;18.10;41.53
16331;BME280;8275;48.206;16.340;2023-02-18T03:09:03;99488.00;;;18.09;41.89
16331;BME280;8275;48.206;16.340;2023-02-18T03:11:46;99483.56;;;18.08;42.03
16331;BME280;8275;48.206;16.340;2023-02-18T03:14:26;99483.56;;;18.08;42.11
16331;BME280;8275;48.206;16.340;2023-02-18T03:17:01;99485.50;;;18.08;41.83
16331;BME280;8275;48.206;16.340;2023-02-18T03:19:34;99480.78;;;18.08;42.20
16331;BME280;8275;48.206;16.340;2023-02-18T03:22:07;99477.69;;;18.10;42.17
16331;BME280;8275;48.206;16.340;2023-02-18T03:24:42;99468.78;;;18.13;42.03
16331;BME280;8275;48.206;16.340;2023-02-18T03:27:17;99470.13;;;18.15;42.25
16331;BME280;8275;48.206;16.340;2023-02-18T03:29:52;99474.53;;;18.16;42.13
16331;BME280;8275;48.206;16.340;2023-02-18T03:32:24;99473.13;;;18.19;42.09
16331;BME280;8275;48.206;16.340;2023-02-18T03:34:59;99467.88;;;18.17;42.10
16331;BME280;8275;48.206;16.340;2023-02-18T03:37:30;99482.59;;;18.18;41.97
16331;BME280;8275;48.206;16.340;2023-02-18T03:40:01;99482.84;;;18.16;42.09
16331;BME280;8275;48.206;16.340;2023-02-18T03:42:30;99479.56;;;18.14;41.96
16331;BME280;8275;48.206;16.340;2023-02-18T03:44:58;99484.59;;;18.12;42.14
16331;BME280;8275;48.206;16.340;2023-02-18T03:47:27;99488.50;;;18.11;42.00
16331;BME280;8275;48.206;16.340;2023-02-18T03:49:55;99490.44;;;18.11;41.99
16331;BME280;8275;48.206;16.340;2023-02-18T03:52:24;99474.13;;;18.09;42.18
16331;BME280;8275;48.206;16.340;2023-02-18T03:54:52;99476.66;;;18.06;42.16
16331;BME280;8275;48.206;16.340;2023-02-18T03:57:22;99497.47;;;18.03;42.08
16331;BME280;8275;48.206;16.340;2023-02-18T03:59:50;99500.84;;;18.00;42.03
16331;BME280;8275;48.206;16.340;2023-02-18T04:02:19;99507.84;;;17.98;42.12
16331;BME280;8275;48.206;16.340;2023-02-18T04:04:47;99495.69;;;17.94;42.18
16331;BME280;8275;48.206;16.340;2023-02-18T04:07:16;99500.69;;;17.92;42.23
16331;BME280;8275;48.206;16.340;2023-02-18T04:09:44;99512.09;;;17.90;42.13
16331;BME280;8275;48.206;16.340;2023-02-18T04:12:13;99504.38;;;17.87;42.30
16331;BME280;8275;48.206;16.340;2023-02-18T04:14:43;99491.09;;;17.84;42.35
16331;BME280;8275;48.206;16.340;2023-02-18T04:17:12;99500.56;;;17.83;42.33
16331;BME280;8275;48.206;16.340;2023-02-18T04:19:40;99496.13;;;17.82;42.46
16331;BME280;8275;48.206;16.340;2023-02-18T04:22:08;99508.34;;;17.81;42.47
16331;BME280;8275;48.206;16.340;2023-02-18T04:24:37;99498.88;;;17.82;42.35
16331;BME280;8275;48.206;16.340;2023-02-18T04:27:05;99517.19;;;17.83;42.40
16331;BME280;8275;48.206;16.340;2023-02-18T04:29:34;99505.25;;;17.83;42.50
16331;BME280;8275;48.206;16.340;2023-02-18T04:32:04;99512.75;;;17.82;42.29
16331;BME280;8275;48.206;16.340;2023-02-18T04:34:33;99505.25;;;17.83;42.36
16331;BME280;8275;48.206;16.340;2023-02-18T04:37:01;99515.25;;;17.84;42.44
16331;BME280;8275;48.206;16.340;2023-02-18T04:39:29;99511.31;;;17.85;42.43
16331;BME280;8275;48.206;16.340;2023-02-18T04:41:58;99525.19;;;17.85;42.35
16331;BME280;8275;48.206;16.340;2023-02-18T04:44:26;99518.28;;;17.82;42.44
16331;BME280;8275;48.206;16.340;2023-02-18T04:46:55;99514.72;;;17.82;42.20
16331;BME280;8275;48.206;16.340;2023-02-18T04:49:24;99531.63;;;17.80;42.53
16331;BME280;8275;48.206;16.340;2023-02-18T04:51:53;99535.22;;;17.81;42.42
16331;BME280;8275;48.206;16.340;2023-02-18T04:54:21;99523.63;;;17.79;42.37
16331;BME280;8275;48.206;16.340;2023-02-18T04:56:50;99523.63;;;17.79;42.23
16331;BME280;8275;48.206;16.340;2023-02-18T04:59:18;99531.69;;;17.75;42.43
16331;BME280;8275;48.206;16.340;2023-02-18T05:01:47;99531.16;;;17.73;42.26
16331;BME280;8275;48.206;16.340;2023-02-18T05:04:15;99535.66;;;17.69;42.37
16331;BME280;8275;48.206;16.340;2023-02-18T05:06:45;99534.81;;;17.69;42.39
16331;BME280;8275;48.206;16.340;2023-02-18T05:09:14;99545.63;;;17.70;42.40
16331;BME280;8275;48.206;16.340;2023-02-18T05:11:43;99540.59;;;17.72;42.37
16331;BME280;8275;48.206;16.340;2023-02-18T05:14:12;99556.94;;;17.74;42.34
16331;BME280;8275;48.206;16.340;2023-02-18T05:16:40;99553.56;;;17.77;42.23
16331;BME280;8275;48.206;16.340;2023-02-18T05:19:11;99561.00;;;17.81;42.30
16331;BME280;8275;48.206;16.340;2023-02-18T05:21:41;99563.97;;;17.85;42.46
16331;BME280;8275;48.206;16.340;2023-02-18T05:24:11;99565.06;;;17.89;42.36
16331;BME280;8275;48.206;16.340;2023-02-18T05:26:39;99567.22;;;17.92;42.41
16331;BME280;8275;48.206;16.340;2023-02-18T05:29:08;99564.69;;;17.95;42.27
16331;BME280;8275;48.206;16.340;2023-02-18T05:31:36;99555.25;;;17.96;42.43
16331;BME280;8275;48.206;16.340;2023-02-18T05:34:05;99561.03;;;18.00;42.28
16331;BME280;8275;48.206;16.340;2023-02-18T05:36:34;99569.88;;;18.02;42.17
16331;BME280;8275;48.206;16.340;2023-02-18T05:39:02;99562.06;;;18.04;42.34
16331;BME280;8275;48.206;16.340;2023-02-18T05:41:32;99567.03;;;18.07;42.17
16331;BME280;8275;48.206;16.340;2023-02-18T05:44:00;99566.41;;;18.10;42.19
16331;BME280;8275;48.206;16.340;2023-02-18T05:46:46;99569.72;;;18.12;42.22
16331;BME280;8275;48.206;16.340;2023-02-18T05:49:15;99568.28;;;18.14;42.10
16331;BME280;8275;48.206;16.340;2023-02-18T05:51:43;99564.09;;;18.17;42.15
16331;BME280;8275;48.206;16.340;2023-02-18T05:54:12;99563.50;;;18.20;42.12
16331;BME280;8275;48.206;16.340;2023-02-18T05:56:42;99550.47;;;18.20;42.01
16331;BME280;8275;48.206;16.340;2023-02-18T05:59:10;99571.25;;;18.23;41.89
16331;BME280;8275;48.206;16.340;2023-02-18T06:01:39;99569.28;;;18.23;42.11
16331;BME280;8275;48.206;16.340;2023-02-18T06:04:07;99574.03;;;18.23;41.95
16331;BME280;8275;48.206;16.340;2023-02-18T06:06:36;99574.03;;;18.23;42.04
16331;BME280;8275;48.206;16.340;2023-02-18T06:09:05;99576.78;;;18.23;41.97
16331;BME280;8275;48.206;16.340;2023-02-18T06:11:34;99564.56;;;18.24;42.04
16331;BME280;8275;48.206;16.340;2023-02-18T06:14:04;99576.78;;;18.23;42.03
16331;BME280;8275;48.206;16.340;2023-02-18T06:16:33;99571.25;;;18.23;42.01
16331;BME280;8275;48.206;16.340;2023-02-18T06:19:02;99577.91;;;18.22;42.10
16331;BME280;8275;48.206;16.340;2023-02-18T06:21:30;99580.16;;;18.20;41.95
16331;BME280;8275;48.206;16.340;2023-02-18T06:23:59;99583.50;;;18.17;42.15
16331;BME280;8275;48.206;16.340;2023-02-18T06:26:27;99580.53;;;18.13;42.15
16331;BME280;8275;48.206;16.340;2023-02-18T06:28:56;99591.09;;;18.11;42.42
16331;BME280;8275;48.206;16.340;2023-02-18T06:31:26;99587.81;;;18.09;42.40
16331;BME280;8275;48.206;16.340;2023-02-18T06:33:54;99594.97;;;18.10;42.42
16331;BME280;8275;48.206;16.340;2023-02-18T06:36:23;99564.16;;;18.12;42.51
16331;BME280;8275;48.206;16.340;2023-02-18T06:38:51;99583.81;;;18.15;42.45
16331;BME280;8275;48.206;16.340;2023-02-18T06:41:22;99577.69;;;18.18;42.41
16331;BME280;8275;48.206;16.340;2023-02-18T06:43:51;99583.25;;;18.18;42.45
16331;BME280;8275;48.206;16.340;2023-02-18T06:46:19;99576.53;;;18.19;42.56
16331;BME280;8275;48.206;16.340;2023-02-18T06:48:49;99588.16;;;18.21;42.44
16331;BME280;8275;48.206;16.340;2023-02-18T06:51:18;99584.81;;;18.24;42.47
16331;BME280;8275;48.206;16.340;2023-02-18T06:53:46;99571.47;;;18.27;42.40
16331;BME280;8275;48.206;16.340;2023-02-18T06:56:15;99576.41;;;18.30;42.59
16331;BME280;8275;48.206;16.340;2023-02-18T06:58:44;99584.94;;;18.33;42.48
16331;BME280;8275;48.206;16.340;2023-02-18T07:01:12;99580.47;;;18.37;42.48
16331;BME280;8275;48.206;16.340;2023-02-18T07:03:41;99575.13;;;18.41;42.44
16331;BME280;8275;48.206;16.340;2023-02-18T07:06:10;99571.78;;;18.44;42.34
16331;BME280;8275;48.206;16.340;2023-02-18T07:08:39;99567.28;;;18.48;42.35
16331;BME280;8275;48.206;16.340;2023-02-18T07:11:07;99558.66;;;18.49;42.43
16331;BME280;8275;48.206;16.340;2023-02-18T07:13:36;99575.56;;;18.53;42.38
16331;BME280;8275;48.206;16.340;2023-02-18T07:16:05;99570.53;;;18.55;42.41
16331;BME280;8275;48.206;16.340;2023-02-18T07:18:34;99580.41;;;18.61;42.32
16331;BME280;8275;48.206;16.340;2023-02-18T07:21:03;99571.47;;;18.64;42.32
16331;BME280;8275;48.206;16.340;2023-02-18T07:23:32;99566.13;;;18.67;42.25
16331;BME280;8275;48.206;16.340;2023-02-18T07:26:06;99576.66;;;18.70;42.26
16331;BME280;8275;48.206;16.340;2023-02-18T07:28:36;99565.47;;;18.75;42.25
16331;BME280;8275;48.206;16.340;2023-02-18T07:31:05;99566.50;;;18.79;42.22
16331;BME280;8275;48.206;16.340;2023-02-18T07:33:34;99559.75;;;18.85;42.20
16331;BME280;8275;48.206;16.340;2023-02-18T07:36:03;99567.19;;;18.90;42.16
16331;BME280;8275;48.206;16.340;2023-02-18T07:38:33;99570.16;;;18.93;41.95
16331;BME280;8275;48.206;16.340;2023-02-18T07:41:02;99563.69;;;18.98;41.95
16331;BME280;8275;48.206;16.340;2023-02-18T07:43:30;99566.06;;;19.05;42.02
16331;BME280;8275;48.206;16.340;2023-02-18T07:45:59;99563.53;;;19.08;42.03
16331;BME280;8275;48.206;16.340;2023-02-18T07:48:28;99573.72;;;19.13;41.88
16331;BME280;8275;48.206;16.340;2023-02-18T07:50:56;99574.50;;;19.13;41.82
16331;BME280;8275;48.206;16.340;2023-02-18T07:53:24;99573.41;;;19.14;41.78
16331;BME280;8275;48.206;16.340;2023-02-18T07:55:55;99583.41;;;19.15;41.81
16331;BME280;8275;48.206;16.340;2023-02-18T07:58:28;99577.28;;;19.13;41.83
16331;BME280;8275;48.206;16.340;2023-02-18T08:00:58;99579.78;;;19.15;41.65
16331;BME280;8275;48.206;16.340;2023-02-18T08:03:29;99575.06;;;19.15;41.79
16331;BME280;8275;48.206;16.340;2023-02-18T08:05:58;99567.53;;;19.16;41.76
16331;BME280;8275;48.206;16.340;2023-02-18T08:08:29;99571.13;;;19.16;41.81
16331;BME280;8275;48.206;16.340;2023-02-18T08:11:01;99581.41;;;19.16;41.70
16331;BME280;8275;48.206;16.340;2023-02-18T08:13:44;99572.06;;;19.12;41.77
16331;BME280;8275;48.206;16.340;2023-02-18T08:16:13;99561.53;;;19.09;41.83
16331;BME280;8275;48.206;16.340;2023-02-18T08:18:42;99568.56;;;19.06;41.72
16331;BME280;8275;48.206;16.340;2023-02-18T08:21:11;99570.91;;;18.99;41.83
16331;BME280;8275;48.206;16.340;2023-02-18T08:23:40;99567.38;;;18.93;41.80
16331;BME280;8275;48.206;16.340;2023-02-18T08:26:10;99563.84;;;18.88;42.00
16331;BME280;8275;48.206;16.340;2023-02-18T08:28:39;99563.34;;;18.86;41.98
16331;BME280;8275;48.206;16.340;2023-02-18T08:31:15;99559.53;;;18.82;41.99
16331;BME280;8275;48.206;16.340;2023-02-18T08:33:44;99567.84;;;18.82;42.13
16331;BME280;8275;48.206;16.340;2023-02-18T08:36:13;99565.06;;;18.82;42.18
16331;BME280;8275;48.206;16.340;2023-02-18T08:38:41;99561.47;;;18.81;42.12
16331;BME280;8275;48.206;16.340;2023-02-18T08:41:11;99564.56;;;18.80;42.17
16331;BME280;8275;48.206;16.340;2023-02-18T08:43:40;99563.72;;;18.79;42.28
16331;BME280;8275;48.206;16.340;2023-02-18T08:46:10;99559.59;;;18.77;42.29
16331;BME280;8275;48.206;16.340;2023-02-18T08:48:42;99556.00;;;18.76;42.44
16331;BME280;8275;48.206;16.340;2023-02-18T08:51:14;99552.41;;;18.76;42.45
16331;BME280;8275;48.206;16.340;2023-02-18T08:53:43;99551.28;;;18.77;42.51
16331;BME280;8275;48.206;16.340;2023-02-18T08:56:15;99540.50;;;18.75;42.52
16331;BME280;8275;48.206;16.340;2023-02-18T08:58:44;99542.66;;;18.78;42.56
16331;BME280;8275;48.206;16.340;2023-02-18T09:01:13;99551.50;;;18.80;42.41
16331;BME280;8275;48.206;16.340;2023-02-18T09:03:41;99531.75;;;18.82;42.39
16331;BME280;8275;48.206;16.340;2023-02-18T09:06:10;99536.72;;;18.85;42.61
16331;BME280;8275;48.206;16.340;2023-02-18T09:08:38;99543.09;;;18.85;42.45
16331;BME280;8275;48.206;16.340;2023-02-18T09:11:06;99530.34;;;18.84;42.51
16331;BME280;8275;48.206;16.340;2023-02-18T09:13:38;99525.63;;;18.85;42.51
16331;BME280;8275;48.206;16.340;2023-02-18T09:16:11;99526.44;;;18.85;42.49
16331;BME280;8275;48.206;16.340;2023-02-18T09:18:40;99526.66;;;18.89;42.46
16331;BME280;8275;48.206;16.340;2023-02-18T09:21:12;99525.22;;;18.91;42.51
16331;BME280;8275;48.206;16.340;2023-02-18T09:23:41;99537.34;;;18.96;42.47
16331;BME280;8275;48.206;16.340;2023-02-18T09:26:13;99513.19;;;18.96;42.48
16331;BME280;8275;48.206;16.340;2023-02-18T09:28:43;99505.91;;;19.00;42.31
16331;BME280;8275;48.206;16.340;2023-02-18T09:31:14;99514.13;;;19.05;42.42
16331;BME280;8275;48.206;16.340;2023-02-18T09:33:46;99526.00;;;19.11;42.29
16331;BME280;8275;48.206;16.340;2023-02-18T09:36:16;99516.41;;;19.17;42.15
16331;BME280;8275;48.206;16.340;2023-02-18T09:38:46;99535.44;;;19.23;42.25
16331;BME280;8275;48.206;16.340;2023-02-18T09:41:25;99527.03;;;19.28;42.05
16331;BME280;8275;48.206;16.340;2023-02-18T09:44:00;99531.09;;;19.36;41.86
16331;BME280;8275;48.206;16.340;2023-02-18T09:46:32;99518.94;;;19.45;41.87
16331;BME280;8275;48.206;16.340;2023-02-18T09:49:03;99506.78;;;19.55;41.74
16331;BME280;8275;48.206;16.340;2023-02-18T09:51:33;99524.38;;;19.64;41.67
16331;BME280;8275;48.206;16.340;2023-02-18T09:54:02;99498.66;;;19.72;41.52
16331;BME280;8275;48.206;16.340;2023-02-18T09:56:32;99495.97;;;19.81;41.20
16331;BME280;8275;48.206;16.340;2023-02-18T09:59:14;99501.22;;;19.82;40.81
16331;BME280;8275;48.206;16.340;2023-02-18T10:01:44;99496.97;;;19.85;41.01
16331;BME280;8275;48.206;16.340;2023-02-18T10:04:18;99512.53;;;19.86;40.82
16331;BME280;8275;48.206;16.340;2023-02-18T10:06:52;99501.94;;;19.88;40.66
16331;BME280;8275;48.206;16.340;2023-02-18T10:09:24;99501.75;;;19.84;40.82
16331;BME280;8275;48.206;16.340;2023-02-18T10:11:57;99505.13;;;19.81;40.46
16331;BME280;8275;48.206;16.340;2023-02-18T10:14:30;99501.84;;;19.79;40.72
16331;BME280;8275;48.206;16.340;2023-02-18T10:16:59;99509.34;;;19.79;40.60
16331;BME280;8275;48.206;16.340;2023-02-18T10:19:32;99501.00;;;19.79;40.65
16331;BME280;8275;48.206;16.340;2023-02-18T10:22:04;99505.13;;;19.81;40.65
16331;BME280;8275;48.206;16.340;2023-02-18T10:24:37;99516.25;;;19.81;40.77
16331;BME280;8275;48.206;16.340;2023-02-18T10:27:07;99492.06;;;19.82;40.65
16331;BME280;8275;48.206;16.340;2023-02-18T10:29:37;99484.84;;;19.81;40.44
16331;BME280;8275;48.206;16.340;2023-02-18T10:32:16;99494.00;;;19.81;40.63
16331;BME280;8275;48.206;16.340;2023-02-18T10:34:50;99476.38;;;19.86;40.27
16331;BME280;8275;48.206;16.340;2023-02-18T10:37:44;99478.56;;;19.89;40.38
16331;BME280;8275;48.206;16.340;2023-02-18T10:40:21;99482.84;;;19.95;40.16
16331;BME280;8275;48.206;16.340;2023-02-18T10:43:06;99473.06;;;19.97;39.99
16331;BME280;8275;48.206;16.340;2023-02-18T10:45:45;99475.22;;;20.00;40.02
16331;BME280;8275;48.206;16.340;2023-02-18T10:51:26;99466.63;;;20.10;39.90
16331;BME280;8275;48.206;16.340;2023-02-18T10:53:56;99470.63;;;20.18;39.73
16331;BME280;8275;48.206;16.340;2023-02-18T10:56:35;99454.16;;;20.21;39.63
16331;BME280;8275;48.206;16.340;2023-02-18T10:59:13;99450.75;;;20.24;39.61
16331;BME280;8275;48.206;16.340;2023-02-18T11:01:55;99452.59;;;20.29;39.69
16331;BME280;8275;48.206;16.340;2023-02-18T11:04:32;99441.53;;;20.38;39.67
16331;BME280;8275;48.206;16.340;2023-02-18T11:07:04;99436.03;;;20.46;39.34
16331;BME280;8275;48.206;16.340;2023-02-18T11:09:40;99441.97;;;20.53;39.20
16331;BME280;8275;48.206;16.340;2023-02-18T11:12:16;99438.78;;;20.68;39.27
16331;BME280;8275;48.206;16.340;2023-02-18T11:14:49;99427.56;;;20.82;39.06
16331;BME280;8275;48.206;16.340;2023-02-18T11:17:26;99417.47;;;20.94;38.62
16331;BME280;8275;48.206;16.340;2023-02-18T11:19:58;99422.00;;;21.13;38.12
16331;BME280;8275;48.206;16.340;2023-02-18T11:22:30;99411.22;;;21.20;38.24
16331;BME280;8275;48.206;16.340;2023-02-18T11:25:02;99413.03;;;21.24;38.05
16331;BME280;8275;48.206;16.340;2023-02-18T11:27:36;99410.25;;;21.24;37.65
16331;BME280;8275;48.206;16.340;2023-02-18T11:30:19;99405.81;;;21.23;37.94
16331;BME280;8275;48.206;16.340;2023-02-18T11:32:54;99406.31;;;21.25;37.69
16331;BME280;8275;48.206;16.340;2023-02-18T11:35:27;99399.75;;;21.30;37.50
16331;BME280;8275;48.206;16.340;2023-02-18T11:37:58;99403.22;;;21.35;37.12
16331;BME280;8275;48.206;16.340;2023-02-18T11:40:30;99392.72;;;21.32;37.25
16331;BME280;8275;48.206;16.340;2023-02-18T11:43:04;99401.41;;;21.31;36.95
16331;BME280;8275;48.206;16.340;2023-02-18T11:45:34;99387.31;;;21.27;37.15
16331;BME280;8275;48.206;16.340;2023-02-18T11:48:14;99383.50;;;21.23;37.17
16331;BME280;8275;48.206;16.340;2023-02-18T11:50:44;99374.84;;;21.25;37.39
16331;BME280;8275;48.206;16.340;2023-02-18T11:53:27;99383.66;;;21.18;37.16
16331;BME280;8275;48.206;16.340;2023-02-18T11:55:58;99376.59;;;21.12;37.28
16331;BME280;8275;48.206;16.340;2023-02-18T11:58:32;99359.53;;;21.05;36.87
16331;BME280;8275;48.206;16.340;2023-02-18T12:01:05;99371.63;;;21.00;36.83
16331;BME280;8275;48.206;16.340;2023-02-18T12:03:40;99363.25;;;21.00;37.04
16331;BME280;8275;48.206;16.340;2023-02-18T12:06:14;99351.38;;;21.09;36.68
16331;BME280;8275;48.206;16.340;2023-02-18T12:08:50;99338.28;;;21.18;36.71
16331;BME280;8275;48.206;16.340;2023-02-18T12:11:27;99372.72;;;21.39;36.74
16331;BME280;8275;48.206;16.340;2023-02-18T12:13:58;99340.66;;;21.76;35.42
16331;BME280;8275;48.206;16.340;2023-02-18T12:16:36;99326.72;;;22.10;35.10
16331;BME280;8275;48.206;16.340;2023-02-18T12:19:32;99325.84;;;22.35;34.79
16331;BME280;8275;48.206;16.340;2023-02-18T12:22:11;99315.91;;;22.63;34.54
16331;BME280;8275;48.206;16.340;2023-02-18T12:25:00;99309.19;;;23.02;34.03
16331;BME280;8275;48.206;16.340;2023-02-18T12:27:38;99312.25;;;23.38;32.75
16331;BME280;8275;48.206;16.340;2023-02-18T12:30:36;99274.59;;;23.77;31.77
16331;BME280;8275;48.206;16.340;2023-02-18T12:33:18;99289.47;;;23.90;31.07
16331;BME280;8275;48.206;16.340;2023-02-18T12:36:04;99278.38;;;24.14;31.42
16331;BME280;8275;48.206;16.340;2023-02-18T12:39:00;99281.22;;;24.26;31.35
16331;BME280;8275;48.206;16.340;2023-02-18T12:41:58;99277.50;;;24.46;31.03
16331;BME280;8275;48.206;16.340;2023-02-18T12:44:37;99264.19;;;24.43;30.62
16331;BME280;8275;48.206;16.340;2023-02-18T12:50:51;99240.63;;;25.17;30.63
16331;BME280;8275;48.206;16.340;2023-02-18T12:54:08;99248.84;;;25.61;29.82
16331;BME280;8275;48.206;16.340;2023-02-18T12:57:20;99238.13;;;26.07;28.86
16331;BME280;8275;48.206;16.340;2023-02-18T13:03:52;99219.34;;;27.20;27.98
16331;BME280;8275;48.206;16.340;2023-02-18T13:06:59;99209.13;;;27.85;27.77
16331;BME280;8275;48.206;16.340;2023-02-18T13:09:48;99203.38;;;28.20;25.30
16331;BME280;8275;48.206;16.340;2023-02-18T13:12:25;99201.56;;;28.08;25.87
16331;BME280;8275;48.206;16.340;2023-02-18T13:15:02;99201.63;;;27.93;26.25
16331;BME280;8275;48.206;16.340;2023-02-18T13:17:35;99187.13;;;27.71;26.51
16331;BME280;8275;48.206;16.340;2023-02-18T13:20:16;99178.66;;;27.91;26.38
16331;BME280;8275;48.206;16.340;2023-02-18T13:22:49;99180.06;;;28.23;26.14
16331;BME280;8275;48.206;16.340;2023-02-18T13:25:19;99182.16;;;28.03;25.74
16331;BME280;8275;48.206;16.340;2023-02-18T13:27:58;99170.75;;;27.77;24.46
16331;BME280;8275;48.206;16.340;2023-02-18T13:30:40;99155.16;;;27.41;23.81
16331;BME280;8275;48.206;16.340;2023-02-18T13:33:16;99157.13;;;26.71;24.33
16331;BME280;8275;48.206;16.340;2023-02-18T13:35:54;99151.28;;;26.14;25.31
16331;BME280;8275;48.206;16.340;2023-02-18T13:38:46;99148.31;;;25.63;25.97
16331;BME280;8275;48.206;16.340;2023-02-18T13:41:18;99143.66;;;25.28;26.49
16331;BME280;8275;48.206;16.340;2023-02-18T13:43:46;99141.09;;;24.83;25.92
16331;BME280;8275;48.206;16.340;2023-02-18T13:46:17;99130.03;;;24.38;26.65